createdAt,value
2022-12-01T00:01:13.903Z,102965.97
2022-12-01T00:03:40.584Z,102970.75
2022-12-01T00:06:13.314Z,102969.00
2022-12-01T00:08:39.904Z,102971.06
2022-12-01T00:11:09.944Z,102974.78
2022-12-01T00:13:37.016Z,102973.06
2022-12-01T00:16:30.309Z,102967.59
2022-12-01T00:18:57.618Z,102958.50
2022-12-01T00:21:25.862Z,102963.28
2022-12-01T00:23:55.391Z,102957.06
2022-12-01T00:26:22.235Z,102954.47
2022-12-01T00:28:53.804Z,102953.75
2022-12-01T00:31:20.840Z,102963.72
2022-12-01T00:33:47.493Z,102947.41
2022-12-01T00:36:14.353Z,102959.22
2022-12-01T00:38:41.169Z,102954.63
2022-12-01T00:41:08.274Z,102958.66
2022-12-01T00:43:35.033Z,102953.34
2022-12-01T00:46:01.768Z,102954.34
2022-12-01T00:48:28.457Z,102960.53
2022-12-01T00:50:56.005Z,102958.97
2022-12-01T00:53:23.785Z,102959.81
2022-12-01T00:55:50.838Z,102958.09
2022-12-01T00:58:17.513Z,102959.25
2022-12-01T01:00:44.223Z,102968.59
2022-12-01T01:03:11.133Z,102960.41
2022-12-01T01:05:39.535Z,102963.13
2022-12-01T01:08:10.361Z,102971.34
2022-12-01T01:10:42.220Z,102971.63
2022-12-01T01:13:09.700Z,102971.63
2022-12-01T01:15:36.886Z,102966.03
2022-12-01T01:18:05.042Z,102975.41
2022-12-01T01:20:32.587Z,102971.63
2022-12-01T01:22:59.159Z,102966.59
2022-12-01T01:25:25.737Z,102966.44
2022-12-01T01:27:52.359Z,102967.63
2022-12-01T01:30:19.582Z,102957.84
2022-12-01T01:32:46.196Z,102963.03
2022-12-01T01:35:12.794Z,102968.78
2022-12-01T01:37:39.552Z,102963.31
2022-12-01T01:40:06.678Z,102966.19
2022-12-01T01:42:33.251Z,102969.91
2022-12-01T01:44:59.848Z,102972.50
2022-12-01T01:47:40.627Z,102961.00
2022-12-01T01:50:11.437Z,102965.75
2022-12-01T01:52:44.990Z,102968.50
2022-12-01T01:55:12.837Z,102966.63
2022-12-01T01:57:40.290Z,102967.63
2022-12-01T02:00:10.439Z,102971.50
2022-12-01T02:02:45.055Z,102959.72
2022-12-01T02:05:19.115Z,102971.66
2022-12-01T02:07:47.929Z,102971.94
2022-12-01T02:10:22.542Z,102960.28
2022-12-01T02:13:11.004Z,102967.50
2022-12-01T02:15:46.789Z,102971.94
2022-12-01T02:18:25.648Z,102970.53
2022-12-01T02:21:30.538Z,102967.63
2022-12-01T02:24:45.475Z,102965.03
2022-12-01T02:27:39.871Z,102969.78
2022-12-01T02:30:28.957Z,102969.66
2022-12-01T02:33:08.068Z,102969.09
2022-12-01T02:35:50.220Z,102966.50
2022-12-01T02:38:26.650Z,102961.00
2022-12-01T02:41:06.552Z,102960.56
2022-12-01T02:43:50.926Z,102959.69
2022-12-01T02:46:44.382Z,102967.63
2022-12-01T02:49:18.164Z,102967.50
2022-12-01T02:51:45.552Z,102972.81
2022-12-01T02:54:14.813Z,102974.69
2022-12-01T02:56:44.505Z,102975.72
2022-12-01T02:59:13.087Z,102979.16
2022-12-01T03:01:46.282Z,102974.84
2022-12-01T03:04:25.210Z,102963.16
2022-12-01T03:07:27.187Z,102973.94
2022-12-01T03:10:04.831Z,102967.03
2022-12-01T03:12:38.323Z,102967.03
2022-12-01T03:15:26.374Z,102965.31
2022-12-01T03:18:15.810Z,102963.56
2022-12-01T03:20:48.405Z,102969.03
2022-12-01T03:23:19.942Z,102963.56
2022-12-01T03:25:49.452Z,102966.44
2022-12-01T03:28:22.640Z,102967.56
2022-12-01T03:30:55.457Z,102963.25
2022-12-01T03:33:32.960Z,102975.94
2022-12-01T03:36:21.371Z,102967.88
2022-12-01T03:38:54.375Z,102966.97
2022-12-01T03:41:26.119Z,102964.09
2022-12-01T03:43:55.972Z,102964.38
2022-12-01T03:46:31.852Z,102959.94
2022-12-01T03:48:58.850Z,102958.22
2022-12-01T03:51:37.549Z,102966.44
2022-12-01T03:54:13.881Z,102961.94
2022-12-01T03:56:48.781Z,102959.19
2022-12-01T03:59:17.320Z,102958.03
2022-12-01T04:01:45.677Z,102967.00
2022-12-01T04:04:13.718Z,102965.25
2022-12-01T04:06:46.561Z,102969.88
2022-12-01T04:09:13.210Z,102966.25
2022-12-01T04:11:58.064Z,102965.53
2022-12-01T04:14:24.605Z,102974.47
2022-12-01T04:16:51.161Z,102972.00
2022-12-01T04:19:17.718Z,102980.97
2022-12-01T04:21:44.402Z,102977.63
2022-12-01T04:24:12.379Z,102973.72
2022-12-01T04:26:39.327Z,102978.50
2022-12-01T04:29:08.766Z,102975.03
2022-12-01T04:31:35.823Z,102974.00
2022-12-01T04:34:02.800Z,102975.03
2022-12-01T04:36:34.848Z,102976.19
2022-12-01T04:39:02.282Z,102977.03
2022-12-01T04:41:29.961Z,102976.31
2022-12-01T04:43:56.962Z,102973.59
2022-12-01T04:46:24.440Z,102981.06
2022-12-01T04:48:51.494Z,102979.75
2022-12-01T04:51:18.624Z,102976.31
2022-12-01T04:53:45.264Z,102977.31
2022-12-01T04:56:11.914Z,102976.31
2022-12-01T04:58:38.661Z,102982.78
2022-12-01T05:01:10.720Z,102976.59
2022-12-01T05:03:42.453Z,102990.84
2022-12-01T05:06:13.730Z,102990.28
2022-12-01T05:08:40.855Z,102984.81
2022-12-01T05:11:08.815Z,102986.41
2022-12-01T05:13:40.250Z,102981.06
2022-12-01T05:16:15.366Z,102980.78
2022-12-01T05:18:42.475Z,102996.03
2022-12-01T05:21:10.989Z,102996.03
2022-12-01T05:23:38.607Z,102991.44
2022-12-01T05:26:07.374Z,102992.88
2022-12-01T05:28:34.056Z,102992.88
2022-12-01T05:31:01.230Z,102987.28
2022-12-01T05:33:28.628Z,102991.47
2022-12-01T05:35:56.042Z,102994.34
2022-12-01T05:38:22.589Z,102992.31
2022-12-01T05:40:53.269Z,102988.59
2022-12-01T05:43:26.903Z,102995.50
2022-12-01T05:45:55.719Z,102989.16
2022-12-01T05:48:22.378Z,102985.44
2022-12-01T05:50:49.178Z,102981.97
2022-12-01T05:53:15.980Z,102983.56
2022-12-01T05:55:42.603Z,102993.50
2022-12-01T05:58:09.934Z,102994.34
2022-12-01T06:00:42.260Z,102984.28
2022-12-01T06:03:12.079Z,102982.28
2022-12-01T06:05:38.649Z,102973.94
2022-12-01T06:08:05.481Z,102982.97
2022-12-01T06:10:32.105Z,102986.59
2022-12-01T06:12:58.639Z,102976.66
2022-12-01T06:15:26.540Z,102993.81
2022-12-01T06:17:53.230Z,102999.28
2022-12-01T06:20:19.831Z,103000.91
2022-12-01T06:22:46.529Z,103000.91
2022-12-01T06:25:13.210Z,102998.16
2022-12-01T06:27:39.820Z,103005.38
2022-12-01T06:30:07.074Z,103006.25
2022-12-01T06:32:33.792Z,103012.56
2022-12-01T06:35:00.401Z,103001.63
2022-12-01T06:37:27.577Z,103012.56
2022-12-01T06:39:54.343Z,103007.97
2022-12-01T06:42:20.991Z,103021.50
2022-12-01T06:44:47.605Z,103015.00
2022-12-01T06:47:15.852Z,103015.91
2022-12-01T06:49:42.754Z,103021.22
2022-12-01T06:52:10.148Z,103029.44
2022-12-01T06:54:37.604Z,103013.16
2022-12-01T06:57:04.713Z,103017.47
2022-12-01T06:59:31.718Z,103026.41
2022-12-01T07:01:58.940Z,103030.19
2022-12-01T07:04:25.630Z,103026.56
2022-12-01T07:06:52.161Z,103024.69
2022-12-01T07:09:18.857Z,103026.41
2022-12-01T07:11:45.520Z,103038.09
2022-12-01T07:14:20.375Z,103035.38
2022-12-01T07:16:47.056Z,103042.56
2022-12-01T07:19:13.714Z,103032.63
2022-12-01T07:21:40.256Z,103039.81
2022-12-01T07:24:07.260Z,103037.97
2022-12-01T07:26:34.081Z,103042.56
2022-12-01T07:29:00.814Z,103041.13
2022-12-01T07:31:27.502Z,103039.41
2022-12-01T07:33:54.226Z,103043.31
2022-12-01T07:36:20.901Z,103051.09
2022-12-01T07:38:47.452Z,103052.81
2022-12-01T07:41:16.448Z,103059.16
2022-12-01T07:43:43.251Z,103056.72
2022-12-01T07:46:24.066Z,103051.66
2022-12-01T07:48:51.939Z,103065.06
2022-12-01T07:51:18.955Z,103057.72
2022-12-01T07:53:47.740Z,103060.19
2022-12-01T07:56:18.477Z,103059.28
2022-12-01T07:58:45.495Z,103065.50
2022-12-01T08:01:18.317Z,103067.22
2022-12-01T08:03:45.453Z,103064.50
2022-12-01T08:06:12.393Z,103067.81
2022-12-01T08:08:40.800Z,103067.97
2022-12-01T08:11:16.534Z,103066.81
2022-12-01T08:13:44.257Z,103065.94
2022-12-01T08:16:13.501Z,103074.00
2022-12-01T08:18:41.425Z,103078.34
2022-12-01T08:21:11.114Z,103081.94
2022-12-01T08:23:37.714Z,103080.06
2022-12-01T08:26:12.542Z,103084.38
2022-12-01T08:28:42.341Z,103080.81
2022-12-01T08:31:16.606Z,103084.09
2022-12-01T08:33:43.228Z,103089.59
2022-12-01T08:36:10.030Z,103089.44
2022-12-01T08:38:36.853Z,103083.13
2022-12-01T08:41:09.018Z,103081.97
2022-12-01T08:46:33.814Z,103088.03
2022-12-01T08:49:01.378Z,103090.78
2022-12-01T08:51:28.046Z,103087.88
2022-12-01T08:53:55.964Z,103082.41
2022-12-01T08:56:29.837Z,103077.50
2022-12-01T08:58:56.747Z,103056.72
2022-12-01T09:01:23.688Z,103073.16
2022-12-01T09:04:05.448Z,103087.28
2022-12-01T09:06:34.833Z,103079.50
2022-12-01T09:09:02.010Z,103080.66
2022-12-01T09:11:28.709Z,103083.41
2022-12-01T09:13:55.321Z,103078.94
2022-12-01T09:16:22.139Z,103082.38
2022-12-01T09:18:48.839Z,103076.06
2022-12-01T09:21:23.860Z,103077.94
2022-12-01T09:23:50.656Z,103076.19
2022-12-01T09:26:19.580Z,103079.22
2022-12-01T09:28:47.191Z,103082.25
2022-12-01T09:31:14.901Z,103075.47
2022-12-01T09:33:41.857Z,103077.06
2022-12-01T09:36:11.403Z,103074.03
2022-12-01T09:38:39.101Z,103072.47
2022-12-01T09:41:21.197Z,103067.97
2022-12-01T09:44:14.344Z,103074.31
2022-12-01T09:46:46.685Z,103067.97
2022-12-01T09:49:22.990Z,103070.56
2022-12-01T09:51:54.717Z,103069.72
2022-12-01T09:54:21.423Z,103070.41
2022-12-01T09:56:53.107Z,103080.69
2022-12-01T09:59:22.624Z,103075.91
2022-12-01T10:01:55.047Z,103071.44
2022-12-01T10:04:34.946Z,103074.91
2022-12-01T10:07:05.129Z,103067.69
2022-12-01T10:09:55.787Z,103065.97
2022-12-01T10:12:27.727Z,103061.50
2022-12-01T10:15:13.391Z,103067.97
2022-12-01T10:17:51.658Z,103056.31
2022-12-01T10:20:31.821Z,103055.28
2022-12-01T10:23:16.197Z,103057.00
2022-12-01T10:26:28.366Z,103058.75
2022-12-01T10:29:20.244Z,103056.84
2022-12-01T10:31:58.307Z,103059.44
2022-12-01T10:34:34.672Z,103052.97
2022-12-01T10:37:01.322Z,103047.66
2022-12-01T10:39:34.076Z,103054.69
2022-12-01T10:42:07.251Z,103051.81
2022-12-01T10:44:35.101Z,103045.59
2022-12-01T10:47:17.168Z,103049.78
2022-12-01T10:49:43.771Z,103062.06
2022-12-01T10:52:30.211Z,103052.09
2022-12-01T10:54:56.784Z,103050.34
2022-12-01T10:57:23.802Z,103044.88
2022-12-01T10:59:50.395Z,103042.00
2022-12-01T11:02:23.935Z,103037.38
2022-12-01T11:05:06.992Z,103036.34
2022-12-01T11:07:36.954Z,103040.84
2022-12-01T11:10:21.713Z,103031.81
2022-12-01T11:13:06.284Z,103040.53
2022-12-01T11:15:38.317Z,103024.25
2022-12-01T11:18:22.062Z,103030.16
2022-12-01T11:21:03.866Z,103025.44
2022-12-01T11:23:30.607Z,103028.13
2022-12-01T11:26:17.751Z,103029.13
2022-12-01T11:28:53.504Z,103024.25
2022-12-01T11:31:25.724Z,103017.63
2022-12-01T11:33:54.427Z,103026.16
2022-12-01T11:36:43.696Z,103018.38
2022-12-01T11:39:23.881Z,103017.69
2022-12-01T11:41:56.589Z,103015.94
2022-12-01T11:47:27.899Z,103012.75
2022-12-01T11:49:59.080Z,103009.03
2022-12-01T11:52:31.737Z,103009.03
2022-12-01T11:55:01.511Z,103013.63
2022-12-01T11:57:35.044Z,103006.28
2022-12-01T12:00:12.517Z,103007.13
2022-12-01T12:02:50.192Z,103008.88
2022-12-01T12:05:16.666Z,103002.22
2022-12-01T12:07:53.424Z,103004.06
2022-12-01T12:11:01.770Z,103009.25
2022-12-01T12:13:59.221Z,103006.66
2022-12-01T12:16:38.007Z,102998.59
2022-12-01T12:19:33.729Z,103008.69
2022-12-01T12:22:09.110Z,102999.75
2022-12-01T12:25:13.089Z,103008.00
2022-12-01T12:27:48.681Z,103001.78
2022-12-01T12:30:20.895Z,102999.03
2022-12-01T12:33:02.672Z,102992.56
2022-12-01T12:35:44.788Z,102994.28
2022-12-01T12:38:56.633Z,102988.63
2022-12-01T12:41:29.776Z,102991.38
2022-12-01T12:44:11.834Z,102996.72
2022-12-01T12:47:10.510Z,102991.22
2022-12-01T12:49:57.810Z,102994.81
2022-12-01T12:52:29.993Z,102993.81
2022-12-01T12:55:14.195Z,102987.31
2022-12-01T12:57:49.748Z,102988.88
2022-12-01T13:00:28.521Z,102996.81
2022-12-01T13:03:06.160Z,102982.09
2022-12-01T13:05:49.640Z,102976.91
2022-12-01T13:08:31.428Z,102974.84
2022-12-01T13:11:04.401Z,102985.84
2022-12-01T13:13:39.366Z,102976.03
2022-12-01T13:16:13.406Z,102976.03
2022-12-01T13:18:47.588Z,102974.31
2022-12-01T13:21:20.450Z,102963.34
2022-12-01T13:23:49.528Z,102978.94
2022-12-01T13:26:18.707Z,102963.19
2022-12-01T13:28:55.609Z,102971.44
2022-12-01T13:31:22.755Z,102966.94
2022-12-01T13:33:58.500Z,102969.38
2022-12-01T13:39:24.618Z,102965.63
2022-12-01T13:42:22.506Z,102967.34
2022-12-01T13:44:56.026Z,102965.63
2022-12-01T13:47:39.232Z,102950.16
2022-12-01T13:50:43.716Z,102956.41
2022-12-01T13:53:27.417Z,102950.78
2022-12-01T13:55:57.147Z,102944.19
2022-12-01T13:58:48.615Z,102940.72
2022-12-01T14:01:22.173Z,102945.50
2022-12-01T14:03:52.128Z,102938.13
2022-12-01T14:06:38.962Z,102947.22
2022-12-01T14:09:13.582Z,102945.34
2022-12-01T14:11:40.427Z,102940.03
2022-12-01T14:14:12.199Z,102957.19
2022-12-01T14:16:51.019Z,102948.78
2022-12-01T14:19:48.669Z,102944.19
2022-12-01T14:22:32.692Z,102936.97
2022-12-01T14:25:00.088Z,102939.72
2022-12-01T14:27:35.894Z,102942.16
2022-12-01T14:30:39.300Z,102938.38
2022-12-01T14:33:39.765Z,102929.28
2022-12-01T14:36:32.304Z,102938.53
2022-12-01T14:38:58.919Z,102939.25
2022-12-01T14:41:37.937Z,102939.25
2022-12-01T14:44:38.728Z,102931.88
2022-12-01T14:47:09.743Z,102934.59
2022-12-01T14:49:48.467Z,102929.13
2022-12-01T14:52:36.585Z,102927.41
2022-12-01T14:55:07.597Z,102927.41
2022-12-01T14:57:39.787Z,102929.44
2022-12-01T15:00:14.368Z,102934.91
2022-12-01T15:02:55.692Z,102933.19
2022-12-01T15:05:27.235Z,102934.06
2022-12-01T15:08:40.391Z,102938.69
2022-12-01T15:11:09.529Z,102926.22
2022-12-01T15:13:56.663Z,102929.69
2022-12-01T15:16:30.219Z,102931.19
2022-12-01T15:18:56.812Z,102935.94
2022-12-01T15:21:30.660Z,102928.03
2022-12-01T15:24:03.984Z,102933.50
2022-12-01T15:26:45.898Z,102930.03
2022-12-01T15:29:25.475Z,102928.03
2022-12-01T15:32:01.583Z,102926.16
2022-12-01T15:34:44.927Z,102932.63
2022-12-01T15:37:15.835Z,102929.03
2022-12-01T15:39:49.557Z,102934.53
2022-12-01T15:42:35.137Z,102942.03
2022-12-01T15:45:03.508Z,102939.31
2022-12-01T15:47:56.490Z,102943.91
2022-12-01T15:50:33.517Z,102942.34
2022-12-01T15:53:04.483Z,102941.63
2022-12-01T15:55:33.972Z,102949.16
2022-12-01T15:58:01.766Z,102946.72
2022-12-01T16:00:28.432Z,102953.63
2022-12-01T16:03:00.017Z,102945.41
2022-12-01T16:05:32.503Z,102953.63
2022-12-01T16:08:23.424Z,102944.00
2022-12-01T16:11:11.608Z,102955.50
2022-12-01T16:13:41.291Z,102949.47
2022-12-01T16:16:38.377Z,102952.75
2022-12-01T16:19:23.912Z,102944.53
2022-12-01T16:21:52.041Z,102947.41
2022-12-01T16:24:26.376Z,102957.56
2022-12-01T16:26:55.023Z,102942.25
2022-12-01T16:29:26.525Z,102920.66
2022-12-01T16:32:19.235Z,102941.84
2022-12-01T16:34:46.705Z,102944.59
2022-12-01T16:37:14.903Z,102935.50
2022-12-01T16:39:42.256Z,102939.09
2022-12-01T16:42:14.034Z,102936.50
2022-12-01T16:44:45.634Z,102935.63
2022-12-01T16:47:15.945Z,102935.63
2022-12-01T16:49:42.761Z,102935.63
2022-12-01T16:54:56.950Z,102942.84
2022-12-01T16:57:23.620Z,102926.72
2022-12-01T16:59:50.153Z,102929.78
2022-12-01T17:02:18.139Z,102931.47
2022-12-01T17:04:44.775Z,102931.06
2022-12-01T17:07:11.304Z,102937.13
2022-12-01T17:09:37.928Z,102932.81
2022-12-01T17:12:04.934Z,102925.56
2022-12-01T17:14:31.598Z,102934.53
2022-12-01T17:17:00.976Z,102933.81
2022-12-01T17:19:27.544Z,102941.75
2022-12-01T17:21:55.897Z,102935.25
2022-12-01T17:24:22.631Z,102934.53
2022-12-01T17:26:49.275Z,102943.78
2022-12-01T17:29:15.797Z,102936.56
2022-12-01T17:31:43.514Z,102939.28
2022-12-01T17:34:10.091Z,102932.50
2022-12-01T17:36:36.638Z,102928.78
2022-12-01T17:39:03.369Z,102932.66
2022-12-01T17:41:35.553Z,102933.53
2022-12-01T17:44:03.658Z,102929.91
2022-12-01T17:46:30.779Z,102933.84
2022-12-01T17:48:57.417Z,102930.78
2022-12-01T17:51:24.124Z,102929.78
2022-12-01T17:53:50.721Z,102927.94
2022-12-01T17:56:17.595Z,102933.41
2022-12-01T17:58:44.223Z,102931.63
2022-12-01T18:01:16.174Z,102924.16
2022-12-01T18:03:43.197Z,102924.16
2022-12-01T18:06:11.528Z,102925.03
2022-12-01T18:08:39.858Z,102928.78
2022-12-01T18:11:09.910Z,102925.47
2022-12-01T18:13:37.503Z,102927.19
2022-12-01T18:16:14.495Z,102924.59
2022-12-01T18:18:41.089Z,102932.81
2022-12-01T18:21:09.429Z,102925.75
2022-12-01T18:23:36.594Z,102925.75
2022-12-01T18:26:13.724Z,102930.38
2022-12-01T18:28:42.380Z,102925.03
2022-12-01T18:31:13.136Z,102924.16
2022-12-01T18:33:42.424Z,102912.66
2022-12-01T18:36:12.421Z,102909.75
2022-12-01T18:38:39.019Z,102917.25
2022-12-01T18:41:06.255Z,102921.88
2022-12-01T18:43:33.419Z,102914.69
2022-12-01T18:46:00.365Z,102928.38
2022-12-01T18:48:27.009Z,102918.44
2022-12-01T18:50:59.111Z,102916.84
2022-12-01T18:53:26.029Z,102916.84
2022-12-01T18:55:52.512Z,102926.66
2022-12-01T18:58:19.167Z,102925.66
2022-12-01T19:00:45.904Z,102921.19
2022-12-01T19:03:13.015Z,102916.69
2022-12-01T19:05:40.587Z,102923.19
2022-12-01T19:08:07.333Z,102924.22
2022-12-01T19:10:33.958Z,102922.47
2022-12-01T19:13:01.092Z,102924.38
2022-12-01T19:15:30.823Z,102919.03
2022-12-01T19:17:57.674Z,102926.41
2022-12-01T19:20:24.290Z,102930.84
2022-12-01T19:22:51.056Z,102926.25
2022-12-01T19:25:20.892Z,102936.19
2022-12-01T19:27:51.205Z,102933.44
2022-12-01T19:30:17.812Z,102936.34
2022-12-01T19:32:46.266Z,102930.00
2022-12-01T19:35:12.965Z,102938.22
2022-12-01T19:37:39.540Z,102938.38
2022-12-01T19:40:06.834Z,102937.50
2022-12-01T19:42:33.429Z,102932.03
2022-12-01T19:45:01.105Z,102924.69
2022-12-01T19:47:32.162Z,102913.84
2022-12-01T19:50:01.279Z,102922.22
2022-12-01T19:52:28.664Z,102917.75
2022-12-01T19:54:55.600Z,102928.56
2022-12-01T19:57:22.135Z,102926.84
2022-12-01T19:59:48.592Z,102934.91
2022-12-01T20:02:15.252Z,102921.66
2022-12-01T20:04:41.767Z,102921.34
2022-12-01T20:07:08.316Z,102926.13
2022-12-01T20:09:34.922Z,102925.13
2022-12-01T20:12:01.412Z,102928.84
2022-12-01T20:14:28.009Z,102918.91
2022-12-01T20:16:55.765Z,102921.81
2022-12-01T20:19:22.639Z,102928.84
2022-12-01T20:21:49.495Z,102920.78
2022-12-01T20:24:21.451Z,102930.91
2022-12-01T20:26:50.803Z,102932.63
2022-12-01T20:29:26.746Z,102933.78
2022-12-01T20:31:55.987Z,102922.81
2022-12-01T20:34:28.584Z,102932.91
2022-12-01T20:36:56.633Z,102932.91
2022-12-01T20:39:23.851Z,102927.44
2022-12-01T20:41:50.463Z,102933.22
2022-12-01T20:44:17.848Z,102931.19
2022-12-01T20:46:45.956Z,102932.19
2022-12-01T20:49:13.204Z,102936.69
2022-12-01T20:51:39.863Z,102929.75
2022-12-01T20:56:54.729Z,102919.66
2022-12-01T20:59:21.264Z,102919.66
2022-12-01T21:01:47.923Z,102920.84
2022-12-01T21:04:14.570Z,102903.53
2022-12-01T21:06:41.272Z,102933.50
2022-12-01T21:09:08.411Z,102919.09
2022-12-01T21:12:01.117Z,102927.16
2022-12-01T21:14:52.113Z,102924.41
2022-12-01T21:17:28.441Z,102928.19
2022-12-01T21:20:01.342Z,102920.84
2022-12-01T21:22:27.893Z,102911.16
2022-12-01T21:25:02.723Z,102918.09
2022-12-01T21:27:29.720Z,102906.69
2022-12-01T21:29:56.905Z,102908.56
2022-12-01T21:32:30.235Z,102916.63
2022-12-01T21:35:13.968Z,102914.94
2022-12-01T21:37:40.378Z,102912.19
2022-12-01T21:40:19.057Z,102910.47
2022-12-01T21:42:45.826Z,102909.75
2022-12-01T21:45:28.299Z,102915.94
2022-12-01T21:48:13.696Z,102895.22
2022-12-01T21:50:40.192Z,102917.09
2022-12-01T21:53:32.502Z,102908.16
2022-12-01T21:55:59.020Z,102910.03
2022-12-01T21:58:29.000Z,102916.25
2022-12-01T22:00:59.444Z,102906.41
2022-12-01T22:03:28.942Z,102911.28
2022-12-01T22:06:31.559Z,102905.81
2022-12-01T22:09:19.017Z,102906.41
2022-12-01T22:11:49.266Z,102912.06
2022-12-01T22:14:20.087Z,102905.88
2022-12-01T22:17:06.251Z,102909.75
2022-12-01T22:19:42.359Z,102901.53
2022-12-01T22:22:08.951Z,102900.69
2022-12-01T22:24:49.484Z,102893.31
2022-12-01T22:27:37.031Z,102889.72
2022-12-01T22:30:06.366Z,102889.72
2022-12-01T22:32:39.357Z,102887.28
2022-12-01T22:35:17.921Z,102891.75
2022-12-01T22:37:47.410Z,102894.63
2022-12-01T22:40:48.099Z,102884.53
2022-12-01T22:43:17.836Z,102893.06
2022-12-01T22:45:48.099Z,102882.09
2022-12-01T22:48:35.620Z,102893.06
2022-12-01T22:51:18.264Z,102888.88
2022-12-01T22:53:46.127Z,102891.59
2022-12-01T22:56:37.087Z,102892.63
2022-12-01T22:59:20.378Z,102892.63
2022-12-01T23:01:53.154Z,102889.88
2022-12-01T23:04:44.891Z,102883.38
2022-12-01T23:07:27.876Z,102889.16
2022-12-01T23:10:01.242Z,102891.06
2022-12-01T23:12:31.509Z,102887.44
2022-12-01T23:15:07.039Z,102881.09
2022-12-01T23:17:35.701Z,102878.50
2022-12-01T23:20:14.535Z,102882.25
2022-12-01T23:22:41.198Z,102874.19
2022-12-01T23:25:16.786Z,102874.03
2022-12-01T23:27:45.879Z,102877.81
2022-12-01T23:30:15.498Z,102875.38
2022-12-01T23:32:42.947Z,102877.09
2022-12-01T23:35:17.753Z,102871.91
2022-12-01T23:37:47.590Z,102872.47
2022-12-01T23:40:33.281Z,102874.50
2022-12-01T23:43:12.057Z,102864.41
2022-12-01T23:45:39.134Z,102869.00
2022-12-01T23:48:15.063Z,102873.63
2022-12-01T23:50:41.754Z,102860.22
2022-12-01T23:53:39.036Z,102867.28
2022-12-01T23:56:14.684Z,102873.06
2022-12-01T23:58:43.284Z,102861.22
